createdAt,value
2023-01-29T00:02:07.495Z,0.28
2023-01-29T00:12:13.997Z,0.12
2023-01-29T00:22:20.269Z,0.22
2023-01-29T00:32:26.599Z,0.08
2023-01-29T00:42:51.347Z,0.00
2023-01-29T00:52:57.711Z,-0.02
2023-01-29T01:03:07.066Z,-0.12
2023-01-29T01:13:13.849Z,-0.11
2023-01-29T01:23:20.805Z,-0.24
2023-01-29T01:33:27.257Z,-0.36
2023-01-29T01:43:49.965Z,-0.37
2023-01-29T01:54:05.002Z,-0.40
2023-01-29T02:04:33.542Z,-0.46
2023-01-29T02:14:42.003Z,-0.49
2023-01-29T02:25:27.423Z,-0.81
2023-01-29T02:35:38.655Z,-0.81
2023-01-29T02:45:49.531Z,-0.87
2023-01-29T02:56:23.907Z,-0.90
2023-01-29T03:07:04.017Z,-0.94
2023-01-29T03:17:11.660Z,-0.96
2023-01-29T03:27:38.797Z,-1.01
2023-01-29T03:37:48.227Z,-1.02
2023-01-29T03:48:01.536Z,-1.18
2023-01-29T03:59:13.131Z,-1.20
2023-01-29T04:09:23.297Z,-1.13
2023-01-29T04:19:29.667Z,-1.07
2023-01-29T04:29:35.939Z,-1.12
2023-01-29T04:39:55.491Z,-1.15
2023-01-29T04:50:07.675Z,-1.02
2023-01-29T05:00:25.134Z,-1.12
2023-01-29T05:10:30.735Z,-1.00
2023-01-29T05:20:41.887Z,-1.02
2023-01-29T05:30:53.299Z,-0.98
2023-01-29T05:41:00.684Z,-1.03
2023-01-29T05:51:07.203Z,-0.83
2023-01-29T06:01:21.258Z,-0.83
2023-01-29T06:11:27.719Z,-0.84
2023-01-29T06:21:34.093Z,-0.76
2023-01-29T06:31:40.576Z,-0.77
2023-01-29T06:41:47.497Z,-0.92
2023-01-29T06:51:53.795Z,-0.84
2023-01-29T07:02:00.651Z,-0.77
2023-01-29T07:12:07.109Z,-0.83
2023-01-29T07:22:13.420Z,-0.65
2023-01-29T07:32:19.734Z,-0.65
2023-01-29T07:42:26.092Z,-0.77
2023-01-29T07:52:33.776Z,-0.74
2023-01-29T08:02:40.582Z,-0.71
2023-01-29T08:12:46.972Z,-0.69
2023-01-29T08:23:04.568Z,-0.62
2023-01-29T08:33:11.025Z,-0.39
2023-01-29T08:43:17.429Z,-0.42
2023-01-29T08:53:26.085Z,-0.23
2023-01-29T09:03:32.422Z,-0.27
2023-01-29T09:13:38.867Z,-0.26
2023-01-29T09:23:45.207Z,0.54
2023-01-29T09:33:51.456Z,0.57
2023-01-29T09:44:03.239Z,0.80
2023-01-29T09:54:24.753Z,0.62
2023-01-29T10:04:49.356Z,0.58
2023-01-29T10:15:33.492Z,0.38
2023-01-29T10:25:42.083Z,0.50
2023-01-29T10:35:55.332Z,0.46
2023-01-29T10:46:05.104Z,0.36
2023-01-29T10:56:36.131Z,0.34
2023-01-29T11:06:42.418Z,0.54
2023-01-29T11:16:49.833Z,0.39
2023-01-29T11:26:58.769Z,1.01
2023-01-29T11:37:06.470Z,0.82
2023-01-29T11:47:15.747Z,0.88
2023-01-29T11:57:43.081Z,0.91
2023-01-29T12:07:51.834Z,0.67
2023-01-29T12:18:22.997Z,0.83
2023-01-29T12:28:38.177Z,0.82
2023-01-29T12:38:45.529Z,1.25
2023-01-29T12:48:52.074Z,1.58
2023-01-29T12:58:59.205Z,1.46
2023-01-29T13:09:09.516Z,1.88
2023-01-29T13:19:35.994Z,1.82
2023-01-29T13:29:44.788Z,1.47
2023-01-29T13:39:53.776Z,1.65
2023-01-29T13:50:20.300Z,1.55
2023-01-29T14:00:35.661Z,1.58
2023-01-29T14:10:43.689Z,1.81
2023-01-29T14:20:49.966Z,1.45
2023-01-29T14:30:56.790Z,1.16
2023-01-29T14:41:13.657Z,1.07
2023-01-29T14:51:21.599Z,0.83
2023-01-29T15:01:39.141Z,0.58
2023-01-29T15:11:51.609Z,0.57
2023-01-29T15:22:16.613Z,0.44
2023-01-29T15:32:29.810Z,0.10
2023-01-29T15:42:50.001Z,-0.07
2023-01-29T15:52:57.366Z,-0.31
2023-01-29T16:03:15.472Z,-0.38
2023-01-29T16:13:36.677Z,-0.36
2023-01-29T16:23:45.578Z,-0.37
2023-01-29T16:33:52.177Z,-0.38
2023-01-29T16:44:02.491Z,-0.55
2023-01-29T16:54:10.453Z,-0.56
2023-01-29T17:04:19.239Z,-0.45
2023-01-29T17:14:27.077Z,-0.59
2023-01-29T17:24:33.486Z,-0.43
2023-01-29T17:34:39.818Z,-0.32
2023-01-29T17:44:46.577Z,-0.32
2023-01-29T17:54:53.332Z,-0.35
2023-01-29T18:04:59.792Z,-0.43
2023-01-29T18:15:06.474Z,-0.45
2023-01-29T18:25:13.710Z,-0.39
2023-01-29T18:35:20.087Z,-0.38
2023-01-29T18:45:26.616Z,-0.43
2023-01-29T18:55:33.798Z,-0.32
2023-01-29T19:05:40.652Z,-0.39
2023-01-29T19:15:49.265Z,-0.45
2023-01-29T19:25:59.379Z,-0.39
2023-01-29T19:36:06.098Z,-0.44
2023-01-29T19:46:12.553Z,-0.51
2023-01-29T19:56:19.882Z,-0.57
2023-01-29T20:06:28.874Z,-0.68
2023-01-29T20:16:35.204Z,-0.69
2023-01-29T20:26:41.833Z,-0.61
2023-01-29T20:36:48.180Z,-0.65
2023-01-29T20:46:54.714Z,-0.49
2023-01-29T20:57:01.122Z,-0.53
2023-01-29T21:07:09.064Z,-0.77
2023-01-29T21:17:15.496Z,-0.66
2023-01-29T21:27:21.799Z,-0.70
2023-01-29T21:37:28.175Z,-0.59
2023-01-29T21:47:34.440Z,-0.92
2023-01-29T21:57:41.023Z,-0.93
2023-01-29T22:07:47.596Z,-1.21
2023-01-29T22:17:54.402Z,-1.13
2023-01-29T22:28:00.972Z,-1.00
2023-01-29T22:38:07.759Z,-0.99
2023-01-29T22:48:14.573Z,-1.06
2023-01-29T22:58:20.868Z,-1.03
2023-01-29T23:08:27.188Z,-1.06
2023-01-29T23:18:33.863Z,-0.94
2023-01-29T23:28:40.616Z,-0.96
2023-01-29T23:38:46.935Z,-0.91
2023-01-29T23:48:53.270Z,-0.96
2023-01-29T23:59:00.027Z,-1.04
